createdAt,value
2022-12-29T00:00:01.408Z,7.6
2022-12-29T00:01:01.175Z,7.6
2022-12-29T00:02:02.006Z,7.6
2022-12-29T00:03:02.317Z,7.6
2022-12-29T00:04:01.435Z,7.6
2022-12-29T00:05:02.576Z,7.6
2022-12-29T00:06:01.127Z,7.7
2022-12-29T00:07:01.224Z,7.7
2022-12-29T00:08:01.156Z,7.7
2022-12-29T00:09:01.188Z,7.7
2022-12-29T00:10:01.300Z,7.7
2022-12-29T00:11:01.206Z,7.7
2022-12-29T00:12:01.168Z,7.7
2022-12-29T00:13:03.209Z,7.7
2022-12-29T00:14:02.207Z,7.7
2022-12-29T00:15:01.101Z,7.7
2022-12-29T00:16:01.186Z,7.7
2022-12-29T00:17:01.093Z,7.7
2022-12-29T00:18:01.109Z,7.7
2022-12-29T00:19:01.068Z,7.7
2022-12-29T00:20:02.033Z,7.7
2022-12-29T00:21:01.452Z,7.7
2022-12-29T00:22:01.467Z,7.7
2022-12-29T00:23:01.191Z,7.7
2022-12-29T00:24:01.976Z,7.6
2022-12-29T00:25:01.979Z,7.6
2022-12-29T00:26:01.159Z,7.6
2022-12-29T00:27:01.150Z,7.6
2022-12-29T00:28:06.555Z,7.6
2022-12-29T00:29:01.067Z,7.6
2022-12-29T00:30:00.754Z,7.6
2022-12-29T00:31:00.468Z,7.6
2022-12-29T00:32:00.273Z,7.6
2022-12-29T00:32:59.950Z,7.6
2022-12-29T00:33:59.556Z,7.6
2022-12-29T00:35:01.772Z,7.6
2022-12-29T00:36:01.787Z,7.6
2022-12-29T00:37:02.041Z,7.6
2022-12-29T00:38:02.130Z,7.6
2022-12-29T00:39:01.151Z,7.6
2022-12-29T00:40:01.906Z,7.6
2022-12-29T00:41:01.151Z,7.6
2022-12-29T00:42:01.150Z,7.6
2022-12-29T00:43:02.966Z,7.6
2022-12-29T00:44:01.435Z,7.5
2022-12-29T00:45:01.671Z,7.5
2022-12-29T00:46:01.756Z,7.5
2022-12-29T00:47:01.506Z,7.5
2022-12-29T00:48:01.794Z,7.5
2022-12-29T00:49:01.759Z,7.5
2022-12-29T00:50:02.008Z,7.5
2022-12-29T00:51:01.792Z,7.5
2022-12-29T00:52:01.105Z,7.5
2022-12-29T00:53:01.095Z,7.5
2022-12-29T00:54:01.128Z,7.5
2022-12-29T00:55:04.240Z,7.5
2022-12-29T00:56:02.315Z,7.5
2022-12-29T00:57:01.411Z,7.5
2022-12-29T00:58:01.412Z,7.5
2022-12-29T00:59:02.460Z,7.5
2022-12-29T01:00:02.084Z,7.5
2022-12-29T01:01:03.324Z,7.5
2022-12-29T01:02:02.684Z,7.5
2022-12-29T01:03:01.496Z,7.5
2022-12-29T01:04:04.048Z,7.5
2022-12-29T01:05:01.273Z,7.5
2022-12-29T01:06:06.432Z,7.5
2022-12-29T01:07:01.054Z,7.5
2022-12-29T01:08:01.117Z,7.5
2022-12-29T01:09:01.110Z,7.5
2022-12-29T01:10:02.061Z,7.5
2022-12-29T01:11:08.980Z,7.5
2022-12-29T01:12:01.923Z,7.4
2022-12-29T01:13:01.155Z,7.4
2022-12-29T01:14:01.180Z,7.5
2022-12-29T01:15:01.869Z,7.4
2022-12-29T01:16:11.354Z,7.4
2022-12-29T01:17:01.551Z,7.4
2022-12-29T01:18:02.141Z,7.4
2022-12-29T01:19:01.761Z,7.4
2022-12-29T01:20:01.971Z,7.4
2022-12-29T01:21:14.710Z,7.4
2022-12-29T01:22:01.264Z,7.4
2022-12-29T01:23:02.626Z,7.4
2022-12-29T01:24:01.971Z,7.4
2022-12-29T01:25:01.420Z,7.3
2022-12-29T01:26:17.125Z,7.4
2022-12-29T01:27:02.156Z,7.3
2022-12-29T01:28:01.174Z,7.4
2022-12-29T01:29:01.105Z,7.3
2022-12-29T01:30:01.162Z,7.3
2022-12-29T01:31:01.139Z,7.3
2022-12-29T01:32:01.649Z,7.3
2022-12-29T01:33:01.183Z,7.4
2022-12-29T01:34:02.181Z,7.4
2022-12-29T01:35:01.864Z,7.4
2022-12-29T01:36:01.074Z,7.4
2022-12-29T01:37:01.088Z,7.4
2022-12-29T01:38:00.877Z,7.4
2022-12-29T01:39:00.620Z,7.4
2022-12-29T01:40:00.317Z,7.4
2022-12-29T01:40:59.931Z,7.4
2022-12-29T01:41:59.589Z,7.4
2022-12-29T01:43:01.813Z,7.3
2022-12-29T01:44:01.336Z,7.3
2022-12-29T01:45:02.507Z,7.4
2022-12-29T01:46:01.589Z,7.4
2022-12-29T01:47:01.196Z,7.3
2022-12-29T01:48:01.204Z,7.4
2022-12-29T01:49:02.391Z,7.4
2022-12-29T01:50:01.219Z,7.4
2022-12-29T01:51:01.199Z,7.4
2022-12-29T01:52:01.384Z,7.4
2022-12-29T01:53:01.417Z,7.4
2022-12-29T01:54:01.208Z,7.4
2022-12-29T01:55:04.052Z,7.4
2022-12-29T01:56:01.986Z,7.4
2022-12-29T01:57:01.104Z,7.4
2022-12-29T01:58:03.925Z,7.4
2022-12-29T01:59:01.160Z,7.4
2022-12-29T02:00:01.279Z,7.4
2022-12-29T02:01:01.012Z,7.4
2022-12-29T02:02:01.098Z,7.4
2022-12-29T02:03:01.989Z,7.5
2022-12-29T02:04:01.149Z,7.5
2022-12-29T02:05:04.682Z,7.5
2022-12-29T02:06:02.779Z,7.4
2022-12-29T02:07:01.078Z,7.4
2022-12-29T02:08:01.077Z,7.4
2022-12-29T02:09:00.999Z,7.5
2022-12-29T02:10:01.186Z,7.5
2022-12-29T02:11:01.292Z,7.4
2022-12-29T02:12:01.517Z,7.4
2022-12-29T02:13:02.654Z,7.5
2022-12-29T02:14:03.859Z,7.5
2022-12-29T02:15:01.393Z,7.5
2022-12-29T02:16:01.218Z,7.5
2022-12-29T02:17:01.130Z,7.4
2022-12-29T02:18:01.165Z,7.5
2022-12-29T02:19:01.555Z,7.5
2022-12-29T02:20:04.122Z,7.5
2022-12-29T02:21:01.220Z,7.5
2022-12-29T02:22:01.243Z,7.5
2022-12-29T02:23:01.143Z,7.5
2022-12-29T02:24:01.799Z,7.5
2022-12-29T02:25:00.823Z,7.5
2022-12-29T02:26:00.574Z,7.5
2022-12-29T02:27:00.274Z,7.5
2022-12-29T02:27:59.974Z,7.5
2022-12-29T02:28:59.656Z,7.5
2022-12-29T02:30:01.796Z,7.5
2022-12-29T02:31:01.050Z,7.5
2022-12-29T02:32:01.199Z,7.5
2022-12-29T02:33:01.138Z,7.5
2022-12-29T02:34:01.320Z,7.5
2022-12-29T02:35:01.775Z,7.5
2022-12-29T02:36:02.375Z,7.5
2022-12-29T02:37:02.671Z,7.5
2022-12-29T02:38:01.403Z,7.5
2022-12-29T02:39:01.060Z,7.5
2022-12-29T02:40:01.752Z,7.5
2022-12-29T02:41:01.067Z,7.5
2022-12-29T02:42:05.227Z,7.5
2022-12-29T02:43:01.179Z,7.5
2022-12-29T02:44:01.478Z,7.5
2022-12-29T02:45:04.490Z,7.5
2022-12-29T02:46:01.273Z,7.5
2022-12-29T02:47:08.540Z,7.5
2022-12-29T02:48:01.134Z,7.5
2022-12-29T02:49:01.140Z,7.6
2022-12-29T02:50:02.358Z,7.6
2022-12-29T02:51:01.138Z,7.6
2022-12-29T02:52:11.044Z,7.6
2022-12-29T02:53:01.543Z,7.6
2022-12-29T02:54:01.154Z,7.6
2022-12-29T02:55:01.781Z,7.6
2022-12-29T02:56:01.058Z,7.6
2022-12-29T02:57:14.309Z,7.6
2022-12-29T02:58:01.768Z,7.6
2022-12-29T02:59:01.992Z,7.6
2022-12-29T03:00:01.430Z,7.7
2022-12-29T03:01:01.258Z,7.7
2022-12-29T03:02:16.848Z,7.7
2022-12-29T03:03:02.671Z,7.7
2022-12-29T03:04:01.919Z,7.7
2022-12-29T03:05:01.532Z,7.7
2022-12-29T03:06:01.274Z,7.7
2022-12-29T03:07:01.144Z,7.7
2022-12-29T03:08:01.145Z,7.7
2022-12-29T03:09:02.485Z,7.7
2022-12-29T03:10:01.873Z,7.8
2022-12-29T03:11:02.339Z,7.8
2022-12-29T03:12:01.252Z,7.8
2022-12-29T03:13:02.007Z,7.8
2022-12-29T03:14:01.100Z,7.8
2022-12-29T03:15:04.269Z,7.8
2022-12-29T03:16:01.258Z,7.8
2022-12-29T03:17:01.397Z,7.8
2022-12-29T03:18:01.110Z,7.8
2022-12-29T03:19:03.860Z,7.8
2022-12-29T03:20:08.735Z,7.8
2022-12-29T03:21:01.133Z,7.8
2022-12-29T03:22:01.153Z,7.8
2022-12-29T03:23:01.127Z,7.8
2022-12-29T03:24:01.160Z,7.9
2022-12-29T03:25:01.366Z,7.9
2022-12-29T03:26:01.546Z,7.9
2022-12-29T03:27:01.185Z,7.9
2022-12-29T03:28:01.063Z,7.9
2022-12-29T03:29:01.065Z,7.9
2022-12-29T03:30:01.088Z,7.9
2022-12-29T03:31:01.236Z,7.9
2022-12-29T03:32:01.090Z,7.9
2022-12-29T03:33:01.527Z,7.9
2022-12-29T03:34:00.911Z,7.9
2022-12-29T03:35:01.109Z,7.9
2022-12-29T03:36:01.110Z,8
2022-12-29T03:37:01.143Z,8
2022-12-29T03:38:01.132Z,8
2022-12-29T03:39:01.154Z,8
2022-12-29T03:40:01.144Z,8
2022-12-29T03:41:01.519Z,8
2022-12-29T03:42:01.176Z,8
2022-12-29T03:43:01.266Z,8
2022-12-29T03:44:01.167Z,8
2022-12-29T03:45:01.791Z,8
2022-12-29T03:46:04.669Z,8
2022-12-29T03:47:01.085Z,8
2022-12-29T03:48:01.462Z,8
2022-12-29T03:49:01.488Z,8
2022-12-29T03:50:01.134Z,8
2022-12-29T03:51:01.227Z,8
2022-12-29T03:52:01.129Z,8.1
2022-12-29T03:53:01.045Z,8
2022-12-29T03:54:01.520Z,8
2022-12-29T03:55:03.918Z,8
2022-12-29T03:56:01.142Z,8
2022-12-29T03:57:01.163Z,8.1
2022-12-29T03:58:01.153Z,8
2022-12-29T03:59:01.167Z,8.1
2022-12-29T04:00:01.385Z,8.1
2022-12-29T04:01:01.522Z,8.1
2022-12-29T04:02:01.557Z,8.1
2022-12-29T04:03:01.291Z,8.1
2022-12-29T04:04:02.300Z,8.1
2022-12-29T04:05:01.055Z,8.1
2022-12-29T04:06:01.103Z,8.1
2022-12-29T04:07:01.268Z,8.1
2022-12-29T04:08:01.103Z,8.1
2022-12-29T04:09:01.049Z,8.1
2022-12-29T04:10:02.170Z,8.1
2022-12-29T04:11:01.741Z,8.1
2022-12-29T04:12:01.577Z,8.1
2022-12-29T04:13:03.204Z,8.1
2022-12-29T04:14:02.552Z,8.1
2022-12-29T04:15:01.892Z,8.1
2022-12-29T04:16:01.318Z,8.1
2022-12-29T04:17:01.080Z,8.1
2022-12-29T04:18:04.644Z,8.1
2022-12-29T04:19:01.098Z,8.1
2022-12-29T04:20:01.182Z,8.1
2022-12-29T04:21:00.993Z,8.1
2022-12-29T04:22:00.763Z,8.1
2022-12-29T04:23:07.573Z,8.1
2022-12-29T04:24:02.513Z,8.1
2022-12-29T04:25:01.216Z,8.1
2022-12-29T04:26:01.309Z,8.1
2022-12-29T04:27:02.607Z,8.1
2022-12-29T04:28:09.499Z,8.1
2022-12-29T04:29:01.759Z,8.1
2022-12-29T04:30:02.026Z,8.1
2022-12-29T04:31:02.691Z,8.1
2022-12-29T04:32:01.171Z,8.1
2022-12-29T04:33:13.347Z,8.1
2022-12-29T04:34:01.502Z,8.1
2022-12-29T04:35:01.972Z,8.1
2022-12-29T04:36:01.137Z,8.1
2022-12-29T04:37:01.092Z,8.2
2022-12-29T04:38:14.038Z,8.2
2022-12-29T04:39:01.368Z,8.3
2022-12-29T04:40:02.124Z,8.3
2022-12-29T04:41:04.134Z,8.3
2022-12-29T04:42:01.113Z,8.3
2022-12-29T04:43:01.158Z,8.3
2022-12-29T04:44:00.726Z,8.3
2022-12-29T04:45:00.309Z,8.3
2022-12-29T04:46:00.009Z,8.3
2022-12-29T04:46:59.740Z,8.3
2022-12-29T04:48:01.455Z,8.3
2022-12-29T04:49:01.280Z,8.3
2022-12-29T04:50:02.145Z,8.3
2022-12-29T04:51:01.138Z,8.3
2022-12-29T04:52:01.208Z,8.3
2022-12-29T04:53:01.117Z,8.3
2022-12-29T04:54:01.175Z,8.3
2022-12-29T04:55:01.186Z,8.3
2022-12-29T04:56:01.390Z,8.3
2022-12-29T04:57:01.241Z,8.3
2022-12-29T04:58:01.096Z,8.4
2022-12-29T04:59:01.162Z,8.3
2022-12-29T05:00:04.255Z,8.4
2022-12-29T05:01:01.149Z,8.4
2022-12-29T05:02:01.327Z,8.4
2022-12-29T05:03:01.639Z,8.4
2022-12-29T05:04:02.284Z,8.4
2022-12-29T05:05:01.413Z,8.4
2022-12-29T05:06:01.420Z,8.4
2022-12-29T05:07:01.464Z,8.4
2022-12-29T05:08:02.518Z,8.5
2022-12-29T05:09:01.103Z,8.4
2022-12-29T05:10:01.870Z,8.5
2022-12-29T05:11:01.091Z,8.5
2022-12-29T05:12:01.102Z,8.5
2022-12-29T05:13:01.122Z,8.5
2022-12-29T05:14:01.663Z,8.5
2022-12-29T05:15:01.194Z,8.5
2022-12-29T05:16:02.244Z,8.5
2022-12-29T05:17:02.977Z,8.5
2022-12-29T05:18:01.360Z,8.5
2022-12-29T05:19:01.378Z,8.6
2022-12-29T05:20:02.759Z,8.5
2022-12-29T05:21:02.075Z,8.5
2022-12-29T05:22:01.092Z,8.5
2022-12-29T05:23:01.080Z,8.5
2022-12-29T05:24:00.769Z,8.5
2022-12-29T05:25:00.534Z,8.5
2022-12-29T05:26:00.170Z,8.6
2022-12-29T05:26:59.868Z,8.6
2022-12-29T05:27:59.456Z,8.6
2022-12-29T05:29:01.210Z,8.6
2022-12-29T05:30:01.867Z,8.5
2022-12-29T05:31:01.171Z,8.5
2022-12-29T05:32:01.148Z,8.6
2022-12-29T05:33:01.177Z,8.5
2022-12-29T05:34:00.833Z,8.5
2022-12-29T05:35:00.897Z,8.6
2022-12-29T05:36:01.060Z,8.5
2022-12-29T05:37:01.071Z,8.5
2022-12-29T05:38:01.081Z,8.5
2022-12-29T05:39:01.226Z,8.5
2022-12-29T05:40:01.777Z,8.5
2022-12-29T05:41:02.145Z,8.5
2022-12-29T05:42:01.085Z,8.6
2022-12-29T05:43:01.105Z,8.6
2022-12-29T05:44:01.120Z,8.6
2022-12-29T05:45:01.119Z,8.6
2022-12-29T05:46:01.124Z,8.6
2022-12-29T05:47:01.213Z,8.5
2022-12-29T05:48:01.145Z,8.6
2022-12-29T05:49:01.835Z,8.6
2022-12-29T05:50:00.935Z,8.5
2022-12-29T05:51:01.159Z,8.6
2022-12-29T05:52:01.235Z,8.6
2022-12-29T05:53:01.103Z,8.6
2022-12-29T05:54:01.180Z,8.6
2022-12-29T05:55:01.180Z,8.6
2022-12-29T05:56:01.091Z,8.6
2022-12-29T05:57:01.097Z,8.6
2022-12-29T05:58:01.070Z,8.6
2022-12-29T05:59:00.887Z,8.6
2022-12-29T06:00:01.112Z,8.6
2022-12-29T06:01:01.126Z,8.6
2022-12-29T06:02:01.295Z,8.6
2022-12-29T06:03:02.865Z,8.6
2022-12-29T06:04:04.545Z,8.6
2022-12-29T06:05:01.176Z,8.6
2022-12-29T06:06:01.221Z,8.6
2022-12-29T06:07:01.161Z,8.6
2022-12-29T06:08:01.263Z,8.6
2022-12-29T06:09:06.727Z,8.6
2022-12-29T06:10:01.063Z,8.6
2022-12-29T06:11:01.072Z,8.6
2022-12-29T06:12:01.092Z,8.6
2022-12-29T06:13:01.052Z,8.6
2022-12-29T06:14:10.268Z,8.6
2022-12-29T06:15:01.355Z,8.5
2022-12-29T06:16:01.426Z,8.5
2022-12-29T06:17:01.655Z,8.6
2022-12-29T06:18:02.299Z,8.6
2022-12-29T06:19:12.898Z,8.6
2022-12-29T06:20:01.329Z,8.6
2022-12-29T06:21:01.137Z,8.6
2022-12-29T06:22:01.181Z,8.6
2022-12-29T06:23:01.149Z,8.6
2022-12-29T06:24:15.616Z,8.6
2022-12-29T06:25:05.385Z,8.6
2022-12-29T06:26:01.465Z,8.6
2022-12-29T06:27:01.585Z,8.6
2022-12-29T06:28:02.063Z,8.6
2022-12-29T06:29:01.228Z,8.6
2022-12-29T06:30:01.465Z,8.6
2022-12-29T06:31:02.644Z,8.6
2022-12-29T06:32:01.205Z,8.6
2022-12-29T06:33:01.323Z,8.6
2022-12-29T06:34:06.495Z,8.6
2022-12-29T06:35:01.941Z,8.6
2022-12-29T06:36:01.876Z,8.6
2022-12-29T06:37:02.407Z,8.6
2022-12-29T06:38:01.270Z,8.6
2022-12-29T06:39:02.061Z,8.6
2022-12-29T06:40:01.314Z,8.6
2022-12-29T06:41:00.776Z,8.6
2022-12-29T06:42:00.469Z,8.6
2022-12-29T06:43:00.184Z,8.6
2022-12-29T06:43:59.952Z,8.6
2022-12-29T06:44:59.739Z,8.6
2022-12-29T06:46:02.365Z,8.6
2022-12-29T06:47:00.772Z,8.6
2022-12-29T06:48:00.533Z,8.6
2022-12-29T06:49:00.225Z,8.6
2022-12-29T06:49:59.860Z,8.6
2022-12-29T06:51:01.528Z,8.6
2022-12-29T06:52:01.286Z,8.7
2022-12-29T06:53:01.444Z,8.7
2022-12-29T06:54:01.444Z,8.7
2022-12-29T06:55:01.045Z,8.7
2022-12-29T06:56:01.744Z,8.7
2022-12-29T06:57:01.965Z,8.7
2022-12-29T06:58:01.331Z,8.7
2022-12-29T06:59:01.210Z,8.7
2022-12-29T07:00:01.373Z,8.6
2022-12-29T07:01:01.199Z,8.6
2022-12-29T07:02:01.328Z,8.6
2022-12-29T07:03:01.502Z,8.6
2022-12-29T07:04:04.104Z,8.6
2022-12-29T07:05:01.313Z,8.6
2022-12-29T07:06:01.227Z,8.5
2022-12-29T07:07:00.987Z,8.5
2022-12-29T07:08:01.147Z,8.5
2022-12-29T07:09:01.136Z,8.5
2022-12-29T07:10:00.781Z,8.5
2022-12-29T07:11:00.789Z,8.5
2022-12-29T07:12:00.817Z,8.5
2022-12-29T07:13:00.562Z,8.5
2022-12-29T07:14:02.592Z,8.4
2022-12-29T07:15:01.759Z,8.4
2022-12-29T07:16:01.972Z,8.4
2022-12-29T07:17:01.143Z,8.4
2022-12-29T07:18:01.104Z,8.4
2022-12-29T07:19:01.181Z,8.4
2022-12-29T07:20:01.687Z,8.3
2022-12-29T07:21:02.229Z,8.3
2022-12-29T07:22:01.267Z,8.3
2022-12-29T07:23:02.585Z,8.3
2022-12-29T07:24:02.189Z,8.3
2022-12-29T07:25:01.172Z,8.3
2022-12-29T07:26:01.133Z,8.3
2022-12-29T07:27:01.569Z,8.3
2022-12-29T07:28:01.230Z,8.3
2022-12-29T07:29:01.241Z,8.3
2022-12-29T07:30:01.170Z,8.3
2022-12-29T07:31:03.980Z,8.3
2022-12-29T07:32:01.115Z,8.3
2022-12-29T07:33:01.083Z,8.3
2022-12-29T07:34:01.071Z,8.3
2022-12-29T07:35:01.090Z,8.3
2022-12-29T07:36:01.118Z,8.3
2022-12-29T07:37:01.117Z,8.3
2022-12-29T07:38:01.065Z,8.3
2022-12-29T07:39:01.210Z,8.3
2022-12-29T07:40:01.065Z,8.3
2022-12-29T07:41:01.119Z,8.3
2022-12-29T07:42:04.811Z,8.3
2022-12-29T07:43:01.156Z,8.3
2022-12-29T07:44:01.145Z,8.3
2022-12-29T07:45:01.148Z,8.3
2022-12-29T07:46:01.231Z,8.3
2022-12-29T07:47:01.415Z,8.3
2022-12-29T07:48:01.229Z,8.3
2022-12-29T07:49:04.070Z,8.3
2022-12-29T07:50:04.039Z,8.3
2022-12-29T07:51:01.448Z,8.3
2022-12-29T07:52:01.169Z,8.3
2022-12-29T07:53:01.159Z,8.4
2022-12-29T07:54:01.497Z,8.4
2022-12-29T07:55:07.628Z,8.4
2022-12-29T07:56:01.115Z,8.4
2022-12-29T07:57:01.147Z,8.4
2022-12-29T07:58:01.149Z,8.4
2022-12-29T07:59:01.983Z,8.4
2022-12-29T08:00:09.851Z,8.4
2022-12-29T08:01:01.133Z,8.4
2022-12-29T08:02:01.323Z,8.4
2022-12-29T08:03:01.982Z,8.5
2022-12-29T08:04:02.362Z,8.4
2022-12-29T08:05:13.442Z,8.5
2022-12-29T08:06:02.073Z,8.5
2022-12-29T08:07:01.148Z,8.5
2022-12-29T08:08:00.808Z,8.4
2022-12-29T08:09:04.245Z,8.5
2022-12-29T08:10:15.630Z,8.5
2022-12-29T08:11:01.946Z,8.5
2022-12-29T08:12:01.234Z,8.5
2022-12-29T08:13:01.168Z,8.5
2022-12-29T08:14:00.839Z,8.5
2022-12-29T08:15:00.611Z,8.5
2022-12-29T08:16:00.401Z,8.6
2022-12-29T08:17:00.139Z,8.6
2022-12-29T08:17:59.932Z,8.6
2022-12-29T08:18:59.617Z,8.6
2022-12-29T08:20:01.505Z,8.6
2022-12-29T08:21:01.250Z,8.6
2022-12-29T08:22:01.134Z,8.6
2022-12-29T08:23:01.079Z,8.7
2022-12-29T08:24:01.161Z,8.7
2022-12-29T08:25:01.162Z,8.7
2022-12-29T08:26:01.110Z,8.8
2022-12-29T08:27:08.358Z,8.8
2022-12-29T08:28:00.810Z,8.8
2022-12-29T08:29:00.777Z,8.8
2022-12-29T08:30:00.369Z,8.8
2022-12-29T08:31:00.206Z,8.8
2022-12-29T08:31:59.822Z,8.8
2022-12-29T08:33:01.767Z,8.8
2022-12-29T08:34:01.758Z,8.8
2022-12-29T08:35:01.484Z,8.8
2022-12-29T08:36:01.919Z,8.8
2022-12-29T08:37:01.979Z,8.8
2022-12-29T08:38:01.065Z,8.8
2022-12-29T08:39:01.151Z,8.8
2022-12-29T08:40:01.295Z,8.8
2022-12-29T08:41:01.176Z,8.8
2022-12-29T08:42:00.506Z,8.8
2022-12-29T08:43:00.271Z,8.8
2022-12-29T08:43:59.920Z,8.8
2022-12-29T08:44:59.736Z,8.8
2022-12-29T08:46:01.558Z,8.7
2022-12-29T08:47:01.166Z,8.8
2022-12-29T08:48:02.055Z,8.7
2022-12-29T08:49:01.537Z,8.8
2022-12-29T08:50:01.891Z,8.7
2022-12-29T08:51:01.466Z,8.8
2022-12-29T08:52:04.349Z,8.8
2022-12-29T08:53:01.736Z,8.8
2022-12-29T08:54:01.117Z,8.8
2022-12-29T08:55:01.093Z,8.8
2022-12-29T08:56:04.975Z,8.8
2022-12-29T08:57:01.498Z,8.8
2022-12-29T08:58:00.852Z,8.8
2022-12-29T08:59:01.503Z,8.8
2022-12-29T09:00:01.496Z,8.8
2022-12-29T09:01:01.223Z,8.8
2022-12-29T09:02:01.106Z,8.8
2022-12-29T09:03:01.798Z,8.8
2022-12-29T09:04:18.008Z,8.8
2022-12-29T09:05:01.303Z,8.8
2022-12-29T09:06:01.147Z,8.8
2022-12-29T09:07:01.543Z,8.8
2022-12-29T09:08:00.837Z,8.9
2022-12-29T09:09:00.546Z,8.9
2022-12-29T09:10:00.179Z,8.9
2022-12-29T09:10:59.896Z,8.9
2022-12-29T09:11:59.541Z,8.9
2022-12-29T09:13:01.451Z,9
2022-12-29T09:14:01.118Z,9
2022-12-29T09:15:01.196Z,9
2022-12-29T09:16:01.274Z,9
2022-12-29T09:17:04.023Z,9.1
2022-12-29T09:18:01.624Z,9.1
2022-12-29T09:19:01.176Z,9.1
2022-12-29T09:20:01.445Z,9.1
2022-12-29T09:21:01.142Z,9.2
2022-12-29T09:22:00.485Z,9.2
2022-12-29T09:23:00.244Z,9.3
2022-12-29T09:24:00.279Z,9.3
2022-12-29T09:25:00.075Z,9.3
2022-12-29T09:26:01.571Z,9.3
2022-12-29T09:27:01.273Z,9.4
2022-12-29T09:28:00.925Z,9.4
2022-12-29T09:29:01.133Z,9.5
2022-12-29T09:30:07.938Z,9.5
2022-12-29T09:31:03.848Z,9.5
2022-12-29T09:32:01.153Z,9.6
2022-12-29T09:33:01.495Z,9.6
2022-12-29T09:34:01.174Z,9.7
2022-12-29T09:35:01.163Z,9.7
2022-12-29T09:36:04.034Z,9.8
2022-12-29T09:37:01.882Z,9.8
2022-12-29T09:38:01.214Z,9.9
2022-12-29T09:39:01.205Z,9.9
2022-12-29T09:40:01.940Z,10
2022-12-29T09:41:06.757Z,10
2022-12-29T09:42:01.055Z,10
2022-12-29T09:43:01.080Z,10.1
2022-12-29T09:44:01.208Z,10.1
2022-12-29T09:45:01.749Z,10.1
2022-12-29T09:46:09.756Z,10.2
2022-12-29T09:47:02.426Z,10.2
2022-12-29T09:48:06.694Z,10.3
2022-12-29T09:49:01.087Z,10.3
2022-12-29T09:50:02.108Z,10.3
2022-12-29T09:51:10.995Z,10.3
2022-12-29T09:52:01.151Z,10.3
2022-12-29T09:53:01.138Z,10.3
2022-12-29T09:54:01.170Z,10.4
2022-12-29T09:55:08.930Z,10.4
2022-12-29T09:56:13.538Z,10.5
2022-12-29T09:57:03.243Z,10.5
2022-12-29T09:58:01.078Z,10.5
2022-12-29T09:59:01.105Z,10.5
2022-12-29T10:00:01.309Z,10.6
2022-12-29T10:01:16.967Z,10.6
2022-12-29T10:02:02.044Z,10.6
2022-12-29T10:03:01.352Z,10.6
2022-12-29T10:04:02.023Z,10.7
2022-12-29T10:05:02.549Z,10.7
2022-12-29T10:06:01.178Z,10.8
2022-12-29T10:07:28.597Z,10.8
2022-12-29T10:08:01.176Z,10.8
2022-12-29T10:09:00.648Z,10.8
2022-12-29T10:10:00.335Z,10.8
2022-12-29T10:11:00.044Z,10.9
2022-12-29T10:11:59.699Z,10.9
2022-12-29T10:13:01.372Z,10.9
2022-12-29T10:14:02.578Z,10.9
2022-12-29T10:15:02.054Z,10.9
2022-12-29T10:16:02.255Z,10.9
2022-12-29T10:17:01.499Z,10.8
2022-12-29T10:18:01.094Z,10.9
2022-12-29T10:19:01.561Z,10.9
2022-12-29T10:20:02.039Z,10.9
2022-12-29T10:21:01.188Z,10.8
2022-12-29T10:22:01.069Z,10.8
2022-12-29T10:23:01.126Z,10.8
2022-12-29T10:24:01.529Z,10.8
2022-12-29T10:25:01.963Z,10.9
2022-12-29T10:26:01.533Z,10.9
2022-12-29T10:27:01.829Z,10.9
2022-12-29T10:28:01.150Z,11
2022-12-29T10:29:01.253Z,11
2022-12-29T10:30:04.681Z,11
2022-12-29T10:31:08.360Z,11.1
2022-12-29T10:32:01.297Z,11.1
2022-12-29T10:33:02.152Z,11.1
2022-12-29T10:34:01.109Z,11.2
2022-12-29T10:35:01.112Z,11.2
2022-12-29T10:36:01.097Z,11.2
2022-12-29T10:37:01.111Z,11.3
2022-12-29T10:38:01.132Z,11.3
2022-12-29T10:39:01.726Z,11.3
2022-12-29T10:40:01.868Z,11.3
2022-12-29T10:41:01.432Z,11.3
2022-12-29T10:42:01.262Z,11.4
2022-12-29T10:43:01.922Z,11.4
2022-12-29T10:44:02.478Z,11.5
2022-12-29T10:45:01.078Z,11.5
2022-12-29T10:46:01.114Z,11.5
2022-12-29T10:47:01.127Z,11.5
2022-12-29T10:48:01.088Z,11.5
2022-12-29T10:49:00.783Z,11.6
2022-12-29T10:50:00.347Z,11.6
2022-12-29T10:51:01.997Z,11.6
2022-12-29T10:52:01.807Z,11.6
2022-12-29T10:53:01.209Z,11.6
2022-12-29T10:54:01.931Z,11.6
2022-12-29T10:55:01.129Z,11.6
2022-12-29T10:56:01.058Z,11.6
2022-12-29T10:57:01.061Z,11.6
2022-12-29T10:58:01.140Z,11.6
2022-12-29T10:59:01.059Z,11.6
2022-12-29T11:00:01.169Z,11.7
2022-12-29T11:01:01.245Z,11.7
2022-12-29T11:02:02.565Z,11.8
2022-12-29T11:03:01.293Z,11.8
2022-12-29T11:04:04.116Z,11.8
2022-12-29T11:05:01.113Z,11.8
2022-12-29T11:06:01.140Z,11.8
2022-12-29T11:07:01.226Z,11.9
2022-12-29T11:08:01.107Z,11.9
2022-12-29T11:09:01.220Z,12
2022-12-29T11:10:01.142Z,12
2022-12-29T11:11:01.308Z,12
2022-12-29T11:12:01.844Z,12
2022-12-29T11:13:01.262Z,12
2022-12-29T11:14:01.130Z,12.1
2022-12-29T11:15:01.172Z,12.1
2022-12-29T11:16:01.229Z,12.1
2022-12-29T11:17:01.211Z,12.1
2022-12-29T11:18:01.803Z,12.2
2022-12-29T11:19:02.032Z,12.2
2022-12-29T11:20:02.438Z,12.3
2022-12-29T11:21:01.811Z,12.3
2022-12-29T11:22:01.931Z,12.2
2022-12-29T11:23:02.259Z,12.2
2022-12-29T11:24:00.694Z,12.2
2022-12-29T11:25:00.384Z,12.2
2022-12-29T11:26:00.082Z,12.2
2022-12-29T11:27:05.859Z,12.2
2022-12-29T11:28:01.954Z,12.1
2022-12-29T11:29:02.455Z,12.2
2022-12-29T11:30:01.534Z,12.2
2022-12-29T11:31:01.244Z,12.2
2022-12-29T11:32:08.996Z,12.2
2022-12-29T11:33:01.963Z,12.2
2022-12-29T11:34:01.054Z,12.3
2022-12-29T11:35:01.178Z,12.3
2022-12-29T11:36:01.082Z,12.3
2022-12-29T11:37:11.876Z,12.2
2022-12-29T11:38:01.142Z,12.2
2022-12-29T11:39:01.059Z,12.2
2022-12-29T11:40:01.127Z,12.3
2022-12-29T11:41:01.924Z,12.3
2022-12-29T11:42:13.482Z,12.3
2022-12-29T11:43:01.120Z,12.3
2022-12-29T11:44:01.887Z,12.3
2022-12-29T11:45:04.069Z,12.3
2022-12-29T11:46:01.290Z,12.3
2022-12-29T11:47:16.314Z,12.3
2022-12-29T11:48:01.040Z,12.3
2022-12-29T11:49:01.157Z,12.3
2022-12-29T11:50:01.194Z,12.3
2022-12-29T11:51:01.095Z,12.3
2022-12-29T11:52:01.068Z,12.3
2022-12-29T11:53:01.130Z,12.3
2022-12-29T11:54:01.809Z,12.3
2022-12-29T11:55:04.292Z,12.4
2022-12-29T11:56:02.099Z,12.4
2022-12-29T11:57:01.057Z,12.4
2022-12-29T11:58:01.119Z,12.4
2022-12-29T11:59:01.163Z,12.4
2022-12-29T12:00:01.182Z,12.4
2022-12-29T12:01:01.963Z,12.5
2022-12-29T12:02:01.448Z,12.4
2022-12-29T12:03:02.159Z,12.4
2022-12-29T12:04:01.200Z,12.4
2022-12-29T12:05:02.017Z,12.4
2022-12-29T12:06:01.330Z,12.4
2022-12-29T12:07:01.980Z,12.4
2022-12-29T12:08:04.432Z,12.4
2022-12-29T12:09:01.180Z,12.5
2022-12-29T12:10:07.010Z,12.5
2022-12-29T12:11:01.048Z,12.5
2022-12-29T12:12:01.066Z,12.5
2022-12-29T12:13:01.261Z,12.5
2022-12-29T12:14:01.285Z,12.5
2022-12-29T12:15:01.350Z,12.5
2022-12-29T12:16:07.809Z,12.5
2022-12-29T12:17:01.277Z,12.6
2022-12-29T12:18:01.135Z,12.6
2022-12-29T12:19:01.128Z,12.6
2022-12-29T12:20:01.835Z,12.6
2022-12-29T12:21:00.971Z,12.6
2022-12-29T12:22:01.100Z,12.6
2022-12-29T12:23:01.540Z,12.6
2022-12-29T12:24:01.284Z,12.6
2022-12-29T12:25:02.271Z,12.6
2022-12-29T12:26:02.237Z,12.6
2022-12-29T12:27:01.096Z,12.7
2022-12-29T12:28:01.080Z,12.6
2022-12-29T12:29:00.782Z,12.6
2022-12-29T12:30:00.496Z,12.6
2022-12-29T12:31:00.457Z,12.6
2022-12-29T12:32:00.054Z,12.6
2022-12-29T12:32:59.673Z,12.7
2022-12-29T12:34:01.376Z,12.7
2022-12-29T12:35:02.046Z,12.7
2022-12-29T12:36:03.061Z,12.7
2022-12-29T12:37:01.054Z,12.7
2022-12-29T12:38:01.203Z,12.7
2022-12-29T12:39:01.974Z,12.7
2022-12-29T12:40:02.369Z,12.7
2022-12-29T12:41:01.077Z,12.7
2022-12-29T12:42:01.083Z,12.8
2022-12-29T12:43:01.587Z,12.7
2022-12-29T12:44:01.212Z,12.8
2022-12-29T12:45:03.026Z,12.8
2022-12-29T12:46:02.815Z,12.8
2022-12-29T12:47:01.167Z,12.8
2022-12-29T12:48:01.098Z,12.8
2022-12-29T12:49:01.785Z,12.8
2022-12-29T12:50:01.433Z,12.8
2022-12-29T12:51:01.137Z,12.8
2022-12-29T12:52:05.085Z,12.8
2022-12-29T12:53:01.773Z,12.8
2022-12-29T12:54:01.835Z,12.8
2022-12-29T12:55:02.813Z,12.8
2022-12-29T12:56:03.129Z,12.8
2022-12-29T12:57:01.069Z,12.8
2022-12-29T12:58:01.083Z,12.8
2022-12-29T12:59:08.913Z,12.8
2022-12-29T13:00:01.869Z,12.8
2022-12-29T13:01:01.131Z,12.8
2022-12-29T13:02:01.307Z,12.8
2022-12-29T13:03:02.728Z,12.8
2022-12-29T13:04:02.216Z,12.8
2022-12-29T13:05:01.172Z,12.8
2022-12-29T13:06:01.141Z,12.8
2022-12-29T13:07:01.152Z,12.7
2022-12-29T13:08:01.158Z,12.7
2022-12-29T13:09:01.044Z,12.6
2022-12-29T13:10:01.224Z,12.7
2022-12-29T13:11:01.178Z,12.7
2022-12-29T13:12:01.169Z,12.6
2022-12-29T13:13:01.154Z,12.6
2022-12-29T13:14:01.889Z,12.6
2022-12-29T13:15:01.084Z,12.6
2022-12-29T13:16:01.143Z,12.6
2022-12-29T13:17:03.735Z,12.6
2022-12-29T13:18:01.133Z,12.6
2022-12-29T13:19:01.120Z,12.6
2022-12-29T13:20:02.162Z,12.6
2022-12-29T13:21:01.251Z,12.6
2022-12-29T13:22:06.550Z,12.6
2022-12-29T13:23:03.507Z,12.6
2022-12-29T13:24:01.175Z,12.6
2022-12-29T13:25:01.860Z,12.6
2022-12-29T13:26:01.502Z,12.6
2022-12-29T13:27:01.166Z,12.6
2022-12-29T13:28:06.157Z,12.6
2022-12-29T13:29:00.961Z,12.6
2022-12-29T13:30:01.127Z,12.6
2022-12-29T13:31:01.178Z,12.6
2022-12-29T13:32:02.957Z,12.6
2022-12-29T13:33:08.486Z,12.6
2022-12-29T13:34:01.813Z,12.6
2022-12-29T13:35:01.149Z,12.6
2022-12-29T13:36:01.111Z,12.6
2022-12-29T13:37:01.169Z,12.6
2022-12-29T13:38:10.369Z,12.6
2022-12-29T13:39:01.291Z,12.6
2022-12-29T13:40:01.292Z,12.6